sensor_id;sensor_type;location;lat;lon;timestamp;P1;durP1;ratioP1;P2;durP2;ratioP2
11066;SDS011;29763;50.904;5.530;2023-03-23T00:02:24;4.63;;;3.55;;
11066;SDS011;29763;50.904;5.530;2023-03-23T00:04:56;4.47;;;3.17;;
11066;SDS011;29763;50.904;5.530;2023-03-23T00:07:22;3.75;;;3.45;;
11066;SDS011;29763;50.904;5.530;2023-03-23T00:09:54;4.82;;;3.47;;
11066;SDS011;29763;50.904;5.530;2023-03-23T00:12:24;4.20;;;3.40;;
11066;SDS011;29763;50.904;5.530;2023-03-23T00:15:05;6.20;;;3.90;;
11066;SDS011;29763;50.904;5.530;2023-03-23T00:17:33;4.60;;;3.65;;
11066;SDS011;29763;50.904;5.530;2023-03-23T00:20:00;4.90;;;3.00;;
11066;SDS011;29763;50.904;5.530;2023-03-23T00:22:29;4.07;;;3.45;;
11066;SDS011;29763;50.904;5.530;2023-03-23T00:24:56;4.18;;;3.03;;
11066;SDS011;29763;50.904;5.530;2023-03-23T00:27:22;3.50;;;3.20;;
11066;SDS011;29763;50.904;5.530;2023-03-23T00:29:51;3.60;;;3.30;;
11066;SDS011;29763;50.904;5.530;2023-03-23T00:32:17;5.15;;;3.30;;
11066;SDS011;29763;50.904;5.530;2023-03-23T00:34:54;4.43;;;3.30;;
11066;SDS011;29763;50.904;5.530;2023-03-23T00:37:42;3.60;;;3.22;;
11066;SDS011;29763;50.904;5.530;2023-03-23T00:40:10;3.90;;;3.40;;
11066;SDS011;29763;50.904;5.530;2023-03-23T00:42:37;3.90;;;3.33;;
11066;SDS011;29763;50.904;5.530;2023-03-23T00:45:04;5.32;;;3.20;;
11066;SDS011;29763;50.904;5.530;2023-03-23T00:47:37;4.75;;;3.50;;
11066;SDS011;29763;50.904;5.530;2023-03-23T00:50:04;3.72;;;3.42;;
11066;SDS011;29763;50.904;5.530;2023-03-23T00:52:34;4.78;;;3.90;;
11066;SDS011;29763;50.904;5.530;2023-03-23T00:55:02;3.85;;;3.42;;
11066;SDS011;29763;50.904;5.530;2023-03-23T00:57:29;4.10;;;3.70;;
11066;SDS011;29763;50.904;5.530;2023-03-23T00:59:55;5.18;;;3.90;;
11066;SDS011;29763;50.904;5.530;2023-03-23T01:02:22;4.18;;;3.50;;
11066;SDS011;29763;50.904;5.530;2023-03-23T01:04:52;4.05;;;3.60;;
11066;SDS011;29763;50.904;5.530;2023-03-23T01:07:19;3.88;;;3.55;;
11066;SDS011;29763;50.904;5.530;2023-03-23T01:09:46;5.32;;;3.80;;
11066;SDS011;29763;50.904;5.530;2023-03-23T01:12:13;4.88;;;3.65;;
11066;SDS011;29763;50.904;5.530;2023-03-23T01:14:42;4.82;;;3.70;;
11066;SDS011;29763;50.904;5.530;2023-03-23T01:17:07;5.72;;;3.72;;
11066;SDS011;29763;50.904;5.530;2023-03-23T01:19:33;3.63;;;3.33;;
11066;SDS011;29763;50.904;5.530;2023-03-23T01:22:00;5.22;;;4.10;;
11066;SDS011;29763;50.904;5.530;2023-03-23T01:24:26;3.97;;;3.67;;
11066;SDS011;29763;50.904;5.530;2023-03-23T01:26:52;4.03;;;3.50;;
11066;SDS011;29763;50.904;5.530;2023-03-23T01:29:19;4.30;;;3.75;;
11066;SDS011;29763;50.904;5.530;2023-03-23T01:31:45;4.03;;;3.65;;
11066;SDS011;29763;50.904;5.530;2023-03-23T01:34:12;5.10;;;3.65;;
11066;SDS011;29763;50.904;5.530;2023-03-23T01:36:38;4.47;;;3.67;;
11066;SDS011;29763;50.904;5.530;2023-03-23T01:39:05;3.80;;;3.45;;
11066;SDS011;29763;50.904;5.530;2023-03-23T01:41:31;4.57;;;3.50;;
11066;SDS011;29763;50.904;5.530;2023-03-23T01:44:03;4.03;;;3.63;;
11066;SDS011;29763;50.904;5.530;2023-03-23T01:46:52;4.20;;;3.80;;
11066;SDS011;29763;50.904;5.530;2023-03-23T01:49:22;4.65;;;3.65;;
11066;SDS011;29763;50.904;5.530;2023-03-23T01:51:53;4.15;;;3.67;;
11066;SDS011;29763;50.904;5.530;2023-03-23T01:54:25;4.00;;;3.60;;
11066;SDS011;29763;50.904;5.530;2023-03-23T01:57:05;5.00;;;3.88;;
11066;SDS011;29763;50.904;5.530;2023-03-23T01:59:35;3.47;;;3.08;;
11066;SDS011;29763;50.904;5.530;2023-03-23T02:02:02;4.10;;;3.70;;
11066;SDS011;29763;50.904;5.530;2023-03-23T02:04:29;4.10;;;3.70;;
11066;SDS011;29763;50.904;5.530;2023-03-23T02:06:57;4.10;;;3.70;;
11066;SDS011;29763;50.904;5.530;2023-03-23T02:09:26;5.35;;;3.85;;
11066;SDS011;29763;50.904;5.530;2023-03-23T02:11:53;4.82;;;3.80;;
11066;SDS011;29763;50.904;5.530;2023-03-23T02:14:20;5.05;;;3.70;;
11066;SDS011;29763;50.904;5.530;2023-03-23T02:16:54;4.10;;;3.70;;
11066;SDS011;29763;50.904;5.530;2023-03-23T02:36:14;3.90;;;3.40;;
11066;SDS011;29763;50.904;5.530;2023-03-23T02:38:58;5.03;;;3.47;;
11066;SDS011;29763;50.904;5.530;2023-03-23T02:41:36;3.47;;;3.17;;
11066;SDS011;29763;50.904;5.530;2023-03-23T02:44:18;3.47;;;3.17;;
11066;SDS011;29763;50.904;5.530;2023-03-23T02:46:48;3.45;;;3.15;;
11066;SDS011;29763;50.904;5.530;2023-03-23T02:49:16;3.60;;;3.30;;
11066;SDS011;29763;50.904;5.530;2023-03-23T02:51:47;3.70;;;3.38;;
11066;SDS011;29763;50.904;5.530;2023-03-23T02:54:15;3.88;;;3.45;;
11066;SDS011;29763;50.904;5.530;2023-03-23T02:56:46;3.80;;;3.50;;
11066;SDS011;29763;50.904;5.530;2023-03-23T02:59:13;4.03;;;3.20;;
11066;SDS011;29763;50.904;5.530;2023-03-23T03:04:17;4.30;;;3.30;;
11066;SDS011;29763;50.904;5.530;2023-03-23T03:12:00;3.70;;;3.40;;
11066;SDS011;29763;50.904;5.530;2023-03-23T03:14:37;4.65;;;3.25;;
11066;SDS011;29763;50.904;5.530;2023-03-23T03:17:25;3.40;;;3.10;;
11066;SDS011;29763;50.904;5.530;2023-03-23T03:19:56;3.72;;;3.30;;
11066;SDS011;29763;50.904;5.530;2023-03-23T03:22:31;3.83;;;3.50;;
11066;SDS011;29763;50.904;5.530;2023-03-23T03:24:58;4.47;;;3.20;;
11066;SDS011;29763;50.904;5.530;2023-03-23T03:27:27;3.42;;;3.20;;
11066;SDS011;29763;50.904;5.530;2023-03-23T03:29:57;3.58;;;3.25;;
11066;SDS011;29763;50.904;5.530;2023-03-23T03:32:31;3.97;;;3.30;;
11066;SDS011;29763;50.904;5.530;2023-03-23T03:35:06;3.30;;;3.05;;
11066;SDS011;29763;50.904;5.530;2023-03-23T03:37:33;4.00;;;3.58;;
11066;SDS011;29763;50.904;5.530;2023-03-23T03:40:08;3.78;;;3.38;;
11066;SDS011;29763;50.904;5.530;2023-03-23T03:42:38;4.47;;;3.20;;
11066;SDS011;29763;50.904;5.530;2023-03-23T03:45:07;4.15;;;3.38;;
11066;SDS011;29763;50.904;5.530;2023-03-23T03:47:35;4.47;;;3.20;;
11066;SDS011;29763;50.904;5.530;2023-03-23T03:50:02;4.45;;;3.15;;
11066;SDS011;29763;50.904;5.530;2023-03-23T03:52:32;3.20;;;2.90;;
11066;SDS011;29763;50.904;5.530;2023-03-23T03:54:58;3.20;;;2.92;;
11066;SDS011;29763;50.904;5.530;2023-03-23T03:57:28;3.90;;;2.95;;
11066;SDS011;29763;50.904;5.530;2023-03-23T03:59:55;3.40;;;3.10;;
11066;SDS011;29763;50.904;5.530;2023-03-23T04:02:21;3.47;;;3.17;;
11066;SDS011;29763;50.904;5.530;2023-03-23T04:04:47;4.68;;;3.40;;
11066;SDS011;29763;50.904;5.530;2023-03-23T04:07:13;3.33;;;3.00;;
11066;SDS011;29763;50.904;5.530;2023-03-23T04:09:41;3.63;;;2.90;;
11066;SDS011;29763;50.904;5.530;2023-03-23T04:12:13;4.07;;;3.08;;
11066;SDS011;29763;50.904;5.530;2023-03-23T04:14:39;4.32;;;2.60;;
11066;SDS011;29763;50.904;5.530;2023-03-23T04:17:05;3.60;;;2.65;;
11066;SDS011;29763;50.904;5.530;2023-03-23T04:19:35;4.10;;;2.90;;
11066;SDS011;29763;50.904;5.530;2023-03-23T04:22:03;3.47;;;2.60;;
11066;SDS011;29763;50.904;5.530;2023-03-23T04:24:36;3.08;;;2.70;;
11066;SDS011;29763;50.904;5.530;2023-03-23T04:27:06;4.28;;;2.85;;
11066;SDS011;29763;50.904;5.530;2023-03-23T04:29:32;4.38;;;2.80;;
11066;SDS011;29763;50.904;5.530;2023-03-23T04:32:00;2.60;;;2.38;;
11066;SDS011;29763;50.904;5.530;2023-03-23T04:34:28;3.47;;;2.55;;
11066;SDS011;29763;50.904;5.530;2023-03-23T04:36:59;3.25;;;2.40;;
11066;SDS011;29763;50.904;5.530;2023-03-23T04:39:24;4.65;;;2.38;;
11066;SDS011;29763;50.904;5.530;2023-03-23T04:41:53;2.72;;;2.30;;
11066;SDS011;29763;50.904;5.530;2023-03-23T04:44:20;2.95;;;2.22;;
11066;SDS011;29763;50.904;5.530;2023-03-23T04:46:46;5.88;;;2.58;;
11066;SDS011;29763;50.904;5.530;2023-03-23T04:49:15;3.55;;;2.40;;
11066;SDS011;29763;50.904;5.530;2023-03-23T04:51:45;3.78;;;2.30;;
11066;SDS011;29763;50.904;5.530;2023-03-23T04:54:12;5.00;;;2.55;;
11066;SDS011;29763;50.904;5.530;2023-03-23T04:56:44;3.72;;;2.40;;
11066;SDS011;29763;50.904;5.530;2023-03-23T04:59:10;4.85;;;2.25;;
11066;SDS011;29763;50.904;5.530;2023-03-23T05:01:40;5.82;;;2.33;;
11066;SDS011;29763;50.904;5.530;2023-03-23T05:04:14;4.80;;;2.17;;
11066;SDS011;29763;50.904;5.530;2023-03-23T05:06:48;2.40;;;2.10;;
11066;SDS011;29763;50.904;5.530;2023-03-23T05:09:22;4.25;;;2.30;;
11066;SDS011;29763;50.904;5.530;2023-03-23T05:11:49;6.57;;;2.72;;
11066;SDS011;29763;50.904;5.530;2023-03-23T05:14:19;4.70;;;2.40;;
11066;SDS011;29763;50.904;5.530;2023-03-23T05:16:45;6.82;;;2.72;;
11066;SDS011;29763;50.904;5.530;2023-03-23T05:19:13;5.35;;;2.25;;
11066;SDS011;29763;50.904;5.530;2023-03-23T05:21:47;4.15;;;2.00;;
11066;SDS011;29763;50.904;5.530;2023-03-23T05:24:12;6.25;;;2.33;;
11066;SDS011;29763;50.904;5.530;2023-03-23T05:26:39;4.65;;;2.03;;
11066;SDS011;29763;50.904;5.530;2023-03-23T05:29:05;4.70;;;2.40;;
11066;SDS011;29763;50.904;5.530;2023-03-23T05:31:31;7.30;;;2.15;;
11066;SDS011;29763;50.904;5.530;2023-03-23T05:33:58;5.00;;;2.22;;
11066;SDS011;29763;50.904;5.530;2023-03-23T05:36:24;3.70;;;2.47;;
11066;SDS011;29763;50.904;5.530;2023-03-23T05:38:50;5.63;;;2.20;;
11066;SDS011;29763;50.904;5.530;2023-03-23T05:41:17;5.00;;;2.53;;
11066;SDS011;29763;50.904;5.530;2023-03-23T05:43:44;5.82;;;2.42;;
11066;SDS011;29763;50.904;5.530;2023-03-23T05:46:10;5.00;;;2.30;;
11066;SDS011;29763;50.904;5.530;2023-03-23T05:48:35;5.65;;;2.30;;
11066;SDS011;29763;50.904;5.530;2023-03-23T05:51:05;5.38;;;2.45;;
11066;SDS011;29763;50.904;5.530;2023-03-23T05:53:32;6.28;;;2.38;;
11066;SDS011;29763;50.904;5.530;2023-03-23T05:55:59;6.82;;;2.47;;
11066;SDS011;29763;50.904;5.530;2023-03-23T05:58:27;3.70;;;2.22;;
11066;SDS011;29763;50.904;5.530;2023-03-23T06:00:59;4.47;;;2.50;;
11066;SDS011;29763;50.904;5.530;2023-03-23T06:03:24;3.20;;;2.10;;
11066;SDS011;29763;50.904;5.530;2023-03-23T06:05:59;4.47;;;2.40;;
11066;SDS011;29763;50.904;5.530;2023-03-23T06:08:32;7.05;;;3.00;;
11066;SDS011;29763;50.904;5.530;2023-03-23T06:11:03;4.35;;;2.35;;
11066;SDS011;29763;50.904;5.530;2023-03-23T06:13:31;6.40;;;2.83;;
11066;SDS011;29763;50.904;5.530;2023-03-23T06:15:57;4.15;;;2.10;;
11066;SDS011;29763;50.904;5.530;2023-03-23T06:18:23;6.15;;;2.70;;
11066;SDS011;29763;50.904;5.530;2023-03-23T06:20:50;5.78;;;2.22;;
11066;SDS011;29763;50.904;5.530;2023-03-23T06:23:23;4.78;;;2.30;;
11066;SDS011;29763;50.904;5.530;2023-03-23T06:25:53;5.78;;;2.72;;
11066;SDS011;29763;50.904;5.530;2023-03-23T06:28:23;3.28;;;2.33;;
11066;SDS011;29763;50.904;5.530;2023-03-23T06:30:53;4.63;;;2.33;;
11066;SDS011;29763;50.904;5.530;2023-03-23T06:33:19;3.85;;;2.30;;
11066;SDS011;29763;50.904;5.530;2023-03-23T06:35:48;3.92;;;2.05;;
11066;SDS011;29763;50.904;5.530;2023-03-23T06:38:14;5.47;;;2.28;;
11066;SDS011;29763;50.904;5.530;2023-03-23T06:40:40;3.08;;;2.22;;
11066;SDS011;29763;50.904;5.530;2023-03-23T06:43:11;4.22;;;2.08;;
11066;SDS011;29763;50.904;5.530;2023-03-23T06:45:39;4.72;;;2.28;;
11066;SDS011;29763;50.904;5.530;2023-03-23T06:48:10;5.45;;;2.42;;
11066;SDS011;29763;50.904;5.530;2023-03-23T06:50:42;5.55;;;2.50;;
11066;SDS011;29763;50.904;5.530;2023-03-23T06:53:19;5.25;;;2.42;;
11066;SDS011;29763;50.904;5.530;2023-03-23T06:55:52;4.10;;;2.25;;
11066;SDS011;29763;50.904;5.530;2023-03-23T06:58:18;4.53;;;2.30;;
11066;SDS011;29763;50.904;5.530;2023-03-23T07:00:44;6.80;;;2.50;;
11066;SDS011;29763;50.904;5.530;2023-03-23T07:03:14;5.68;;;2.40;;
11066;SDS011;29763;50.904;5.530;2023-03-23T07:05:40;5.57;;;2.25;;
11066;SDS011;29763;50.904;5.530;2023-03-23T07:08:08;5.45;;;2.50;;
11066;SDS011;29763;50.904;5.530;2023-03-23T07:10:35;5.47;;;2.05;;
11066;SDS011;29763;50.904;5.530;2023-03-23T07:13:01;3.63;;;2.20;;
11066;SDS011;29763;50.904;5.530;2023-03-23T07:15:27;4.32;;;2.10;;
11066;SDS011;29763;50.904;5.530;2023-03-23T07:17:54;6.28;;;2.42;;
11066;SDS011;29763;50.904;5.530;2023-03-23T07:20:21;3.78;;;2.10;;
11066;SDS011;29763;50.904;5.530;2023-03-23T07:22:47;4.72;;;2.03;;
11066;SDS011;29763;50.904;5.530;2023-03-23T07:25:13;7.05;;;2.10;;
11066;SDS011;29763;50.904;5.530;2023-03-23T07:27:47;6.95;;;2.22;;
11066;SDS011;29763;50.904;5.530;2023-03-23T07:30:17;6.07;;;2.35;;
11066;SDS011;29763;50.904;5.530;2023-03-23T07:32:43;4.72;;;2.53;;
11066;SDS011;29763;50.904;5.530;2023-03-23T07:35:15;5.13;;;2.03;;
11066;SDS011;29763;50.904;5.530;2023-03-23T07:37:42;5.60;;;2.22;;
11066;SDS011;29763;50.904;5.530;2023-03-23T07:40:09;4.85;;;2.30;;
11066;SDS011;29763;50.904;5.530;2023-03-23T07:43:13;6.97;;;2.42;;
11066;SDS011;29763;50.904;5.530;2023-03-23T07:45:33;3.78;;;1.77;;
11066;SDS011;29763;50.904;5.530;2023-03-23T07:47:59;5.63;;;2.80;;
11066;SDS011;29763;50.904;5.530;2023-03-23T07:50:31;3.72;;;2.08;;
11066;SDS011;29763;50.904;5.530;2023-03-23T07:53:03;4.68;;;2.20;;
11066;SDS011;29763;50.904;5.530;2023-03-23T07:55:30;3.33;;;2.00;;
11066;SDS011;29763;50.904;5.530;2023-03-23T07:58:03;4.63;;;2.15;;
11066;SDS011;29763;50.904;5.530;2023-03-23T08:00:29;7.10;;;2.00;;
11066;SDS011;29763;50.904;5.530;2023-03-23T08:02:56;7.32;;;2.30;;
11066;SDS011;29763;50.904;5.530;2023-03-23T08:05:23;6.40;;;2.20;;
11066;SDS011;29763;50.904;5.530;2023-03-23T08:07:55;5.10;;;2.25;;
11066;SDS011;29763;50.904;5.530;2023-03-23T08:10:23;5.57;;;2.15;;
11066;SDS011;29763;50.904;5.530;2023-03-23T08:12:53;5.40;;;2.17;;
11066;SDS011;29763;50.904;5.530;2023-03-23T08:15:21;4.28;;;2.20;;
11066;SDS011;29763;50.904;5.530;2023-03-23T08:17:49;4.97;;;2.58;;
11066;SDS011;29763;50.904;5.530;2023-03-23T08:20:22;7.45;;;2.65;;
11066;SDS011;29763;50.904;5.530;2023-03-23T08:22:55;4.30;;;2.08;;
11066;SDS011;29763;50.904;5.530;2023-03-23T08:25:22;5.40;;;2.17;;
11066;SDS011;29763;50.904;5.530;2023-03-23T08:27:52;3.97;;;2.00;;
11066;SDS011;29763;50.904;5.530;2023-03-23T08:30:20;4.97;;;2.17;;
11066;SDS011;29763;50.904;5.530;2023-03-23T08:32:58;5.75;;;2.55;;
11066;SDS011;29763;50.904;5.530;2023-03-23T08:35:26;4.40;;;2.30;;
11066;SDS011;29763;50.904;5.530;2023-03-23T08:37:53;4.85;;;2.10;;
11066;SDS011;29763;50.904;5.530;2023-03-23T08:40:20;4.00;;;2.13;;
11066;SDS011;29763;50.904;5.530;2023-03-23T08:42:50;3.45;;;1.92;;
11066;SDS011;29763;50.904;5.530;2023-03-23T08:45:25;5.72;;;2.78;;
11066;SDS011;29763;50.904;5.530;2023-03-23T08:47:52;7.75;;;2.13;;
11066;SDS011;29763;50.904;5.530;2023-03-23T08:50:22;5.25;;;2.58;;
11066;SDS011;29763;50.904;5.530;2023-03-23T08:52:51;5.57;;;2.10;;
11066;SDS011;29763;50.904;5.530;2023-03-23T08:55:19;5.30;;;2.20;;
11066;SDS011;29763;50.904;5.530;2023-03-23T08:57:47;4.60;;;2.10;;
11066;SDS011;29763;50.904;5.530;2023-03-23T09:00:15;3.88;;;2.45;;
11066;SDS011;29763;50.904;5.530;2023-03-23T09:02:46;4.65;;;2.25;;
11066;SDS011;29763;50.904;5.530;2023-03-23T09:05:14;4.60;;;2.15;;
11066;SDS011;29763;50.904;5.530;2023-03-23T09:07:44;5.55;;;2.38;;
11066;SDS011;29763;50.904;5.530;2023-03-23T09:10:13;6.50;;;2.30;;
11066;SDS011;29763;50.904;5.530;2023-03-23T09:12:39;3.58;;;2.13;;
11066;SDS011;29763;50.904;5.530;2023-03-23T09:15:07;5.57;;;2.20;;
11066;SDS011;29763;50.904;5.530;2023-03-23T09:17:38;5.60;;;2.50;;
11066;SDS011;29763;50.904;5.530;2023-03-23T09:20:07;4.18;;;2.50;;
11066;SDS011;29763;50.904;5.530;2023-03-23T09:22:40;6.50;;;2.50;;
11066;SDS011;29763;50.904;5.530;2023-03-23T09:25:09;3.88;;;2.20;;
11066;SDS011;29763;50.904;5.530;2023-03-23T09:27:38;4.72;;;2.30;;
11066;SDS011;29763;50.904;5.530;2023-03-23T09:30:10;4.47;;;2.60;;
11066;SDS011;29763;50.904;5.530;2023-03-23T09:32:38;3.85;;;1.95;;
11066;SDS011;29763;50.904;5.530;2023-03-23T09:35:09;4.60;;;2.35;;
11066;SDS011;29763;50.904;5.530;2023-03-23T09:37:36;3.20;;;2.20;;
11066;SDS011;29763;50.904;5.530;2023-03-23T09:40:03;5.30;;;2.38;;
11066;SDS011;29763;50.904;5.530;2023-03-23T09:42:41;3.50;;;2.00;;
11066;SDS011;29763;50.904;5.530;2023-03-23T09:45:16;3.03;;;1.80;;
11066;SDS011;29763;50.904;5.530;2023-03-23T09:51:07;4.47;;;2.30;;
11066;SDS011;29763;50.904;5.530;2023-03-23T09:53:50;2.92;;;2.22;;
11066;SDS011;29763;50.904;5.530;2023-03-23T09:56:20;5.18;;;2.60;;
11066;SDS011;29763;50.904;5.530;2023-03-23T10:01:26;3.95;;;2.40;;
11066;SDS011;29763;50.904;5.530;2023-03-23T10:07:10;4.38;;;2.53;;
11066;SDS011;29763;50.904;5.530;2023-03-23T10:09:39;5.50;;;2.95;;
11066;SDS011;29763;50.904;5.530;2023-03-23T10:18:00;6.85;;;2.40;;
11066;SDS011;29763;50.904;5.530;2023-03-23T10:26:08;5.68;;;2.63;;
11066;SDS011;29763;50.904;5.530;2023-03-23T10:28:43;6.35;;;2.60;;
11066;SDS011;29763;50.904;5.530;2023-03-23T10:31:16;3.35;;;2.05;;
11066;SDS011;29763;50.904;5.530;2023-03-23T10:34:04;5.28;;;2.25;;
11066;SDS011;29763;50.904;5.530;2023-03-23T10:36:50;4.22;;;2.30;;
11066;SDS011;29763;50.904;5.530;2023-03-23T10:39:49;2.05;;;1.60;;
11066;SDS011;29763;50.904;5.530;2023-03-23T10:42:25;3.72;;;1.98;;
11066;SDS011;29763;50.904;5.530;2023-03-23T10:44:57;6.18;;;2.20;;
11066;SDS011;29763;50.904;5.530;2023-03-23T10:47:55;5.13;;;2.30;;
11066;SDS011;29763;50.904;5.530;2023-03-23T10:50:31;4.40;;;2.20;;
11066;SDS011;29763;50.904;5.530;2023-03-23T10:53:00;3.78;;;2.20;;
11066;SDS011;29763;50.904;5.530;2023-03-23T10:55:37;3.75;;;2.25;;
11066;SDS011;29763;50.904;5.530;2023-03-23T10:58:08;5.00;;;2.35;;
11066;SDS011;29763;50.904;5.530;2023-03-23T11:00:40;2.97;;;2.08;;
11066;SDS011;29763;50.904;5.530;2023-03-23T11:05:44;4.68;;;2.00;;
11066;SDS011;29763;50.904;5.530;2023-03-23T11:08:35;3.67;;;2.00;;
11066;SDS011;29763;50.904;5.530;2023-03-23T11:11:19;3.63;;;2.17;;
11066;SDS011;29763;50.904;5.530;2023-03-23T11:13:56;4.18;;;1.95;;
11066;SDS011;29763;50.904;5.530;2023-03-23T11:17:00;2.78;;;1.98;;
11066;SDS011;29763;50.904;5.530;2023-03-23T11:19:35;2.85;;;1.77;;
11066;SDS011;29763;50.904;5.530;2023-03-23T11:24:35;4.10;;;2.20;;
11066;SDS011;29763;50.904;5.530;2023-03-23T11:27:20;4.32;;;2.17;;
11066;SDS011;29763;50.904;5.530;2023-03-23T11:29:56;2.75;;;1.92;;
11066;SDS011;29763;50.904;5.530;2023-03-23T11:32:59;3.42;;;2.28;;
11066;SDS011;29763;50.904;5.530;2023-03-23T11:35:27;2.90;;;2.30;;
11066;SDS011;29763;50.904;5.530;2023-03-23T11:37:55;4.03;;;2.38;;
11066;SDS011;29763;50.904;5.530;2023-03-23T11:40:27;5.53;;;2.97;;
11066;SDS011;29763;50.904;5.530;2023-03-23T11:43:00;3.63;;;2.80;;
11066;SDS011;29763;50.904;5.530;2023-03-23T11:45:40;3.92;;;2.60;;
11066;SDS011;29763;50.904;5.530;2023-03-23T11:51:02;4.93;;;3.15;;
11066;SDS011;29763;50.904;5.530;2023-03-23T11:56:30;3.53;;;2.67;;
11066;SDS011;29763;50.904;5.530;2023-03-23T11:59:02;5.95;;;2.65;;
11066;SDS011;29763;50.904;5.530;2023-03-23T12:04:50;5.18;;;3.30;;
11066;SDS011;29763;50.904;5.530;2023-03-23T12:28:19;4.97;;;2.80;;
11066;SDS011;29763;50.904;5.530;2023-03-23T12:34:06;4.22;;;3.08;;
11066;SDS011;29763;50.904;5.530;2023-03-23T12:48:44;5.55;;;2.60;;
11066;SDS011;29763;50.904;5.530;2023-03-23T12:56:43;3.30;;;2.10;;
11066;SDS011;29763;50.904;5.530;2023-03-23T13:01:53;3.10;;;2.03;;
11066;SDS011;29763;50.904;5.530;2023-03-23T13:04:29;3.60;;;2.20;;
11066;SDS011;29763;50.904;5.530;2023-03-23T13:07:02;4.05;;;2.17;;
11066;SDS011;29763;50.904;5.530;2023-03-23T13:12:34;5.03;;;2.10;;
11066;SDS011;29763;50.904;5.530;2023-03-23T13:15:16;3.42;;;1.80;;
11066;SDS011;29763;50.904;5.530;2023-03-23T13:18:04;3.53;;;1.98;;
11066;SDS011;29763;50.904;5.530;2023-03-23T13:23:55;5.18;;;2.17;;
11066;SDS011;29763;50.904;5.530;2023-03-23T13:26:24;3.00;;;2.00;;
11066;SDS011;29763;50.904;5.530;2023-03-23T13:29:05;4.47;;;2.50;;
11066;SDS011;29763;50.904;5.530;2023-03-23T13:31:36;4.47;;;2.35;;
11066;SDS011;29763;50.904;5.530;2023-03-23T13:36:38;3.90;;;2.40;;
11066;SDS011;29763;50.904;5.530;2023-03-23T13:39:17;4.63;;;2.90;;
11066;SDS011;29763;50.904;5.530;2023-03-23T13:42:18;6.07;;;2.80;;
11066;SDS011;29763;50.904;5.530;2023-03-23T13:47:40;7.13;;;2.92;;
11066;SDS011;29763;50.904;5.530;2023-03-23T14:00:45;6.95;;;2.75;;
11066;SDS011;29763;50.904;5.530;2023-03-23T14:03:26;9.52;;;3.17;;
11066;SDS011;29763;50.904;5.530;2023-03-23T14:06:21;6.97;;;2.97;;
11066;SDS011;29763;50.904;5.530;2023-03-23T14:09:03;7.30;;;3.20;;
11066;SDS011;29763;50.904;5.530;2023-03-23T14:11:44;6.07;;;2.85;;
11066;SDS011;29763;50.904;5.530;2023-03-23T14:14:55;5.10;;;2.90;;
11066;SDS011;29763;50.904;5.530;2023-03-23T14:17:30;7.15;;;3.25;;
11066;SDS011;29763;50.904;5.530;2023-03-23T14:20:06;6.20;;;3.25;;
11066;SDS011;29763;50.904;5.530;2023-03-23T14:22:43;7.85;;;2.85;;
11066;SDS011;29763;50.904;5.530;2023-03-23T14:25:18;7.57;;;3.40;;
11066;SDS011;29763;50.904;5.530;2023-03-23T14:27:50;4.70;;;2.63;;
11066;SDS011;29763;50.904;5.530;2023-03-23T14:30:23;5.90;;;2.88;;
11066;SDS011;29763;50.904;5.530;2023-03-23T14:33:05;7.75;;;3.15;;
11066;SDS011;29763;50.904;5.530;2023-03-23T14:35:37;5.47;;;2.75;;
11066;SDS011;29763;50.904;5.530;2023-03-23T14:38:07;6.43;;;2.83;;
11066;SDS011;29763;50.904;5.530;2023-03-23T14:40:47;5.70;;;2.65;;
11066;SDS011;29763;50.904;5.530;2023-03-23T14:43:19;5.38;;;2.83;;
11066;SDS011;29763;50.904;5.530;2023-03-23T14:45:50;5.60;;;2.58;;
11066;SDS011;29763;50.904;5.530;2023-03-23T14:48:17;6.45;;;2.90;;
11066;SDS011;29763;50.904;5.530;2023-03-23T14:50:50;5.88;;;2.60;;
11066;SDS011;29763;50.904;5.530;2023-03-23T14:56:16;6.22;;;2.75;;
11066;SDS011;29763;50.904;5.530;2023-03-23T14:58:46;4.88;;;2.70;;
11066;SDS011;29763;50.904;5.530;2023-03-23T15:01:16;6.10;;;2.70;;
11066;SDS011;29763;50.904;5.530;2023-03-23T15:03:52;5.15;;;2.72;;
11066;SDS011;29763;50.904;5.530;2023-03-23T15:06:27;4.95;;;2.75;;
11066;SDS011;29763;50.904;5.530;2023-03-23T15:08:57;7.45;;;2.95;;
11066;SDS011;29763;50.904;5.530;2023-03-23T15:11:34;8.05;;;2.80;;
11066;SDS011;29763;50.904;5.530;2023-03-23T15:16:53;6.22;;;3.03;;
11066;SDS011;29763;50.904;5.530;2023-03-23T15:19:28;7.03;;;3.42;;
11066;SDS011;29763;50.904;5.530;2023-03-23T15:30:57;5.38;;;2.50;;
11066;SDS011;29763;50.904;5.530;2023-03-23T15:33:27;7.38;;;3.10;;
11066;SDS011;29763;50.904;5.530;2023-03-23T15:36:04;4.15;;;2.45;;
11066;SDS011;29763;50.904;5.530;2023-03-23T15:38:33;9.90;;;3.03;;
11066;SDS011;29763;50.904;5.530;2023-03-23T15:41:19;5.20;;;2.75;;
11066;SDS011;29763;50.904;5.530;2023-03-23T15:43:53;6.40;;;3.20;;
11066;SDS011;29763;50.904;5.530;2023-03-23T15:46:27;4.68;;;2.63;;
11066;SDS011;29763;50.904;5.530;2023-03-23T15:49:06;9.55;;;3.38;;
11066;SDS011;29763;50.904;5.530;2023-03-23T15:51:35;7.00;;;2.92;;
11066;SDS011;29763;50.904;5.530;2023-03-23T15:54:03;7.28;;;3.05;;
11066;SDS011;29763;50.904;5.530;2023-03-23T15:56:33;6.18;;;2.70;;
11066;SDS011;29763;50.904;5.530;2023-03-23T15:58:59;5.65;;;2.78;;
11066;SDS011;29763;50.904;5.530;2023-03-23T16:01:26;5.60;;;3.00;;
11066;SDS011;29763;50.904;5.530;2023-03-23T16:06:40;7.38;;;2.90;;
11066;SDS011;29763;50.904;5.530;2023-03-23T16:09:07;8.25;;;3.00;;
11066;SDS011;29763;50.904;5.530;2023-03-23T16:11:38;5.05;;;2.58;;
11066;SDS011;29763;50.904;5.530;2023-03-23T16:14:04;6.18;;;3.30;;
11066;SDS011;29763;50.904;5.530;2023-03-23T16:16:33;7.47;;;2.88;;
11066;SDS011;29763;50.904;5.530;2023-03-23T16:19:07;7.15;;;2.80;;
11066;SDS011;29763;50.904;5.530;2023-03-23T16:21:37;5.63;;;2.80;;
11066;SDS011;29763;50.904;5.530;2023-03-23T16:24:03;11.55;;;4.47;;
11066;SDS011;29763;50.904;5.530;2023-03-23T16:26:48;8.27;;;3.78;;
11066;SDS011;29763;50.904;5.530;2023-03-23T16:29:14;8.27;;;3.85;;
11066;SDS011;29763;50.904;5.530;2023-03-23T16:31:43;9.88;;;3.75;;
11066;SDS011;29763;50.904;5.530;2023-03-23T16:34:09;7.18;;;3.40;;
11066;SDS011;29763;50.904;5.530;2023-03-23T16:36:36;9.18;;;3.47;;
11066;SDS011;29763;50.904;5.530;2023-03-23T16:39:02;7.82;;;3.15;;
11066;SDS011;29763;50.904;5.530;2023-03-23T16:41:29;9.10;;;3.50;;
11066;SDS011;29763;50.904;5.530;2023-03-23T16:43:55;8.35;;;3.38;;
11066;SDS011;29763;50.904;5.530;2023-03-23T16:46:31;8.05;;;3.75;;
11066;SDS011;29763;50.904;5.530;2023-03-23T16:49:02;7.75;;;3.53;;
11066;SDS011;29763;50.904;5.530;2023-03-23T16:51:30;9.13;;;3.35;;
11066;SDS011;29763;50.904;5.530;2023-03-23T16:53:56;7.70;;;3.28;;
11066;SDS011;29763;50.904;5.530;2023-03-23T16:56:22;9.88;;;3.45;;
11066;SDS011;29763;50.904;5.530;2023-03-23T16:58:48;5.03;;;2.70;;
11066;SDS011;29763;50.904;5.530;2023-03-23T17:01:13;7.93;;;3.53;;
11066;SDS011;29763;50.904;5.530;2023-03-23T17:03:40;8.10;;;3.10;;
11066;SDS011;29763;50.904;5.530;2023-03-23T17:06:07;10.85;;;3.30;;
11066;SDS011;29763;50.904;5.530;2023-03-23T17:08:33;6.15;;;2.83;;
11066;SDS011;29763;50.904;5.530;2023-03-23T17:11:00;9.70;;;3.05;;
11066;SDS011;29763;50.904;5.530;2023-03-23T17:13:26;7.40;;;3.33;;
11066;SDS011;29763;50.904;5.530;2023-03-23T17:15:54;6.53;;;2.60;;
11066;SDS011;29763;50.904;5.530;2023-03-23T17:18:24;5.75;;;2.72;;
11066;SDS011;29763;50.904;5.530;2023-03-23T17:20:51;8.85;;;3.30;;
11066;SDS011;29763;50.904;5.530;2023-03-23T17:23:19;6.65;;;3.22;;
11066;SDS011;29763;50.904;5.530;2023-03-23T17:25:46;8.27;;;3.40;;
11066;SDS011;29763;50.904;5.530;2023-03-23T17:28:12;5.10;;;2.65;;
11066;SDS011;29763;50.904;5.530;2023-03-23T17:30:42;6.15;;;2.92;;
11066;SDS011;29763;50.904;5.530;2023-03-23T17:33:09;9.25;;;3.00;;
11066;SDS011;29763;50.904;5.530;2023-03-23T17:35:40;5.25;;;3.00;;